Ana Sayfa
METAR-TAF:

METAR-TAF

Havaalanları :

Newark-Heath Airport

Newark, Ohio, Amerika Birleşik Devletleri

Enlem: 40-01-22N, Boylam: 082-27-45W, yükseklik: 269 m

Güncel hava durumu gözlemi

Rapor saat 23:54 UTC de 39 dakika önce yapıldı.
Sakin rüzgar
Sıcaklık 13°C
Nem 72%
Basınç 1017 hPa
Görüş mesafesi: 16.1 km
4900 ft yükseklikte çok bulutlu

METAR: KVTA 232354Z AUTO 00000KT 10SM OVC049 13/08 A3002 RMK AO2 SLP167 T01280083 10156 20128 53003

Saat: 20:33 (00:33 UTC)


TAF: eksik

4.000'den fazla havaalanı için hava durumu gözlemleri ve tahminleri (METAR ve TAF raporları).

Kullanılabilir istasyonlar harita üzerinde sarı ve kırmızı noktalarla gösterilir.

İstasyonun adını görmek için fareyi noktanın üzerinde gezdirin.

Sonrasında hava gözlem ve tahminlerini görmek için tıklayın.

Haritayı değiştirmek için: yaklaştırmak için siyah artı işaretli yeşil düğmeye ve uzaklaştırmak için de eksi işaretli düğmeye hızla tıklayın; bitişik haritalar için yeşil okları kullanın.


METAR-TAF: